sensor_id;sensor_type;location;lat;lon;timestamp;temperature;humidity
68109;SHT30;54893;49.864;19.084;2023-04-07T00:03:39;0.09;97.01
68109;SHT30;54893;49.864;19.084;2023-04-07T00:08:40;0.06;97.17
68109;SHT30;54893;49.864;19.084;2023-04-07T00:13:40;0.09;97.04
68109;SHT30;54893;49.864;19.084;2023-04-07T00:18:41;0.10;97.02
68109;SHT30;54893;49.864;19.084;2023-04-07T00:23:41;0.11;97.01
68109;SHT30;54893;49.864;19.084;2023-04-07T00:28:41;0.13;97.07
68109;SHT30;54893;49.864;19.084;2023-04-07T00:33:42;0.13;97.16
68109;SHT30;54893;49.864;19.084;2023-04-07T00:38:42;0.09;97.22
68109;SHT30;54893;49.864;19.084;2023-04-07T00:43:43;0.14;97.16
68109;SHT30;54893;49.864;19.084;2023-04-07T00:48:43;0.14;97.25
68109;SHT30;54893;49.864;19.084;2023-04-07T00:53:44;0.11;97.30
68109;SHT30;54893;49.864;19.084;2023-04-07T00:58:44;0.09;97.38
68109;SHT30;54893;49.864;19.084;2023-04-07T01:03:52;0.13;97.47
68109;SHT30;54893;49.864;19.084;2023-04-07T01:09:02;0.13;97.48
68109;SHT30;54893;49.864;19.084;2023-04-07T01:14:05;0.10;97.57
68109;SHT30;54893;49.864;19.084;2023-04-07T01:19:31;0.16;97.49
68109;SHT30;54893;49.864;19.084;2023-04-07T01:24:59;0.26;97.28
68109;SHT30;54893;49.864;19.084;2023-04-07T01:30:02;0.18;97.25
68109;SHT30;54893;49.864;19.084;2023-04-07T01:35:04;0.10;97.41
68109;SHT30;54893;49.864;19.084;2023-04-07T01:40:09;0.13;97.70
68109;SHT30;54893;49.864;19.084;2023-04-07T01:45:10;0.14;97.44
68109;SHT30;54893;49.864;19.084;2023-04-07T01:50:11;0.20;97.55
68109;SHT30;54893;49.864;19.084;2023-04-07T01:55:12;0.23;97.42
68109;SHT30;54893;49.864;19.084;2023-04-07T02:00:12;0.16;97.55
68109;SHT30;54893;49.864;19.084;2023-04-07T02:05:17;0.16;97.80
68109;SHT30;54893;49.864;19.084;2023-04-07T02:10:22;0.20;97.68
68109;SHT30;54893;49.864;19.084;2023-04-07T02:15:23;0.17;97.78
68109;SHT30;54893;49.864;19.084;2023-04-07T02:20:25;0.18;97.74
68109;SHT30;54893;49.864;19.084;2023-04-07T02:25:29;0.20;97.63
68109;SHT30;54893;49.864;19.084;2023-04-07T02:30:30;0.23;97.65
68109;SHT30;54893;49.864;19.084;2023-04-07T02:35:30;0.17;97.83
68109;SHT30;54893;49.864;19.084;2023-04-07T02:40:31;0.30;97.68
68109;SHT30;54893;49.864;19.084;2023-04-07T02:45:31;0.23;97.64
68109;SHT30;54893;49.864;19.084;2023-04-07T02:50:31;0.23;97.80
68109;SHT30;54893;49.864;19.084;2023-04-07T02:55:32;0.28;97.71
68109;SHT30;54893;49.864;19.084;2023-04-07T03:00:33;0.21;97.81
68109;SHT30;54893;49.864;19.084;2023-04-07T03:05:33;0.23;97.83
68109;SHT30;54893;49.864;19.084;2023-04-07T03:10:34;0.23;97.79
68109;SHT30;54893;49.864;19.084;2023-04-07T03:15:35;0.26;97.76
68109;SHT30;54893;49.864;19.084;2023-04-07T03:20:36;0.26;97.95
68109;SHT30;54893;49.864;19.084;2023-04-07T03:25:36;0.24;97.92
68109;SHT30;54893;49.864;19.084;2023-04-07T03:30:37;0.24;97.93
68109;SHT30;54893;49.864;19.084;2023-04-07T03:35:37;0.30;97.88
68109;SHT30;54893;49.864;19.084;2023-04-07T03:40:38;0.26;97.85
68109;SHT30;54893;49.864;19.084;2023-04-07T03:45:38;0.23;98.01
68109;SHT30;54893;49.864;19.084;2023-04-07T03:50:39;0.24;97.99
68109;SHT30;54893;49.864;19.084;2023-04-07T03:55:40;0.26;98.02
68109;SHT30;54893;49.864;19.084;2023-04-07T04:00:40;0.28;97.98
68109;SHT30;54893;49.864;19.084;2023-04-07T04:05:41;0.27;97.97
68109;SHT30;54893;49.864;19.084;2023-04-07T04:10:41;0.34;97.86
68109;SHT30;54893;49.864;19.084;2023-04-07T04:15:42;0.34;97.75
68109;SHT30;54893;49.864;19.084;2023-04-07T04:20:42;0.31;97.81
68109;SHT30;54893;49.864;19.084;2023-04-07T04:25:43;0.28;97.87
68109;SHT30;54893;49.864;19.084;2023-04-07T04:30:43;0.31;97.89
68109;SHT30;54893;49.864;19.084;2023-04-07T04:35:44;0.34;97.92
68109;SHT30;54893;49.864;19.084;2023-04-07T04:40:45;0.33;97.85
68109;SHT30;54893;49.864;19.084;2023-04-07T04:45:46;0.36;97.75
68109;SHT30;54893;49.864;19.084;2023-04-07T04:50:46;0.36;97.87
68109;SHT30;54893;49.864;19.084;2023-04-07T04:55:47;0.39;97.75
68109;SHT30;54893;49.864;19.084;2023-04-07T05:00:53;0.46;97.62
68109;SHT30;54893;49.864;19.084;2023-04-07T05:05:57;0.44;97.70
68109;SHT30;54893;49.864;19.084;2023-04-07T05:10:57;0.44;97.64
68109;SHT30;54893;49.864;19.084;2023-04-07T05:15:57;0.49;97.65
68109;SHT30;54893;49.864;19.084;2023-04-07T05:20:58;0.51;97.59
68109;SHT30;54893;49.864;19.084;2023-04-07T05:25:58;0.58;97.52
68109;SHT30;54893;49.864;19.084;2023-04-07T05:30:58;0.60;97.47
68109;SHT30;54893;49.864;19.084;2023-04-07T05:36:00;0.65;97.42
68109;SHT30;54893;49.864;19.084;2023-04-07T05:41:00;0.74;97.40
68109;SHT30;54893;49.864;19.084;2023-04-07T05:46:01;0.78;97.27
68109;SHT30;54893;49.864;19.084;2023-04-07T05:51:01;0.81;97.29
68109;SHT30;54893;49.864;19.084;2023-04-07T05:56:01;0.84;97.24
68109;SHT30;54893;49.864;19.084;2023-04-07T06:01:03;0.87;97.23
68109;SHT30;54893;49.864;19.084;2023-04-07T06:06:03;0.96;97.02
68109;SHT30;54893;49.864;19.084;2023-04-07T06:11:04;1.05;96.43
68109;SHT30;54893;49.864;19.084;2023-04-07T06:16:05;1.15;96.20
68109;SHT30;54893;49.864;19.084;2023-04-07T06:21:05;1.19;96.40
68109;SHT30;54893;49.864;19.084;2023-04-07T06:26:09;1.24;96.28
68109;SHT30;54893;49.864;19.084;2023-04-07T06:31:11;1.22;96.62
68109;SHT30;54893;49.864;19.084;2023-04-07T06:36:11;1.22;96.64
68109;SHT30;54893;49.864;19.084;2023-04-07T06:41:11;1.16;96.38
68109;SHT30;54893;49.864;19.084;2023-04-07T06:46:16;1.18;96.46
68109;SHT30;54893;49.864;19.084;2023-04-07T06:51:17;1.15;96.28
68109;SHT30;54893;49.864;19.084;2023-04-07T06:56:17;1.16;96.25
68109;SHT30;54893;49.864;19.084;2023-04-07T07:01:17;1.19;96.06
68109;SHT30;54893;49.864;19.084;2023-04-07T07:06:18;1.18;96.05
68109;SHT30;54893;49.864;19.084;2023-04-07T07:11:18;1.21;95.87
68109;SHT30;54893;49.864;19.084;2023-04-07T07:16:18;1.16;95.93
68109;SHT30;54893;49.864;19.084;2023-04-07T07:21:19;1.21;95.77
68109;SHT30;54893;49.864;19.084;2023-04-07T07:26:20;1.22;95.72
68109;SHT30;54893;49.864;19.084;2023-04-07T07:31:20;1.26;95.71
68109;SHT30;54893;49.864;19.084;2023-04-07T07:36:20;1.25;95.60
68109;SHT30;54893;49.864;19.084;2023-04-07T07:41:21;1.40;95.55
68109;SHT30;54893;49.864;19.084;2023-04-07T07:46:21;1.48;95.59
68109;SHT30;54893;49.864;19.084;2023-04-07T07:51:23;1.48;95.38
68109;SHT30;54893;49.864;19.084;2023-04-07T07:56:23;1.52;95.54
68109;SHT30;54893;49.864;19.084;2023-04-07T08:01:24;1.55;95.31
68109;SHT30;54893;49.864;19.084;2023-04-07T08:06:24;1.69;94.40
68109;SHT30;54893;49.864;19.084;2023-04-07T08:11:26;1.63;94.68
68109;SHT30;54893;49.864;19.084;2023-04-07T08:16:26;1.64;94.70
68109;SHT30;54893;49.864;19.084;2023-04-07T08:21:27;1.66;94.69
68109;SHT30;54893;49.864;19.084;2023-04-07T08:26:27;1.69;94.59
68109;SHT30;54893;49.864;19.084;2023-04-07T08:31:28;1.73;94.75
68109;SHT30;54893;49.864;19.084;2023-04-07T08:36:28;1.73;94.63
68109;SHT30;54893;49.864;19.084;2023-04-07T08:41:37;1.79;94.57
68109;SHT30;54893;49.864;19.084;2023-04-07T08:46:38;1.77;94.61
68109;SHT30;54893;49.864;19.084;2023-04-07T08:51:44;1.79;94.40
68109;SHT30;54893;49.864;19.084;2023-04-07T08:56:49;1.77;94.23
68109;SHT30;54893;49.864;19.084;2023-04-07T09:01:50;1.83;94.44
68109;SHT30;54893;49.864;19.084;2023-04-07T09:06:50;2.02;93.58
68109;SHT30;54893;49.864;19.084;2023-04-07T09:11:51;2.14;93.34
68109;SHT30;54893;49.864;19.084;2023-04-07T09:16:53;2.06;93.15
68109;SHT30;54893;49.864;19.084;2023-04-07T09:21:54;1.89;93.91
68109;SHT30;54893;49.864;19.084;2023-04-07T09:32:11;1.84;94.18
68109;SHT30;54893;49.864;19.084;2023-04-07T09:37:21;1.76;94.27
68109;SHT30;54893;49.864;19.084;2023-04-07T09:42:22;1.86;93.93
68109;SHT30;54893;49.864;19.084;2023-04-07T09:47:26;2.03;93.83
68109;SHT30;54893;49.864;19.084;2023-04-07T09:52:47;1.87;93.86
68109;SHT30;54893;49.864;19.084;2023-04-07T09:57:49;1.87;94.13
68109;SHT30;54893;49.864;19.084;2023-04-07T10:02:49;1.94;94.06
68109;SHT30;54893;49.864;19.084;2023-04-07T10:07:50;1.84;94.28
68109;SHT30;54893;49.864;19.084;2023-04-07T10:12:52;1.86;94.26
68109;SHT30;54893;49.864;19.084;2023-04-07T10:17:53;1.82;94.49
68109;SHT30;54893;49.864;19.084;2023-04-07T10:23:02;1.77;94.60
68109;SHT30;54893;49.864;19.084;2023-04-07T10:28:07;1.76;94.98
68109;SHT30;54893;49.864;19.084;2023-04-07T10:33:08;1.66;95.17
68109;SHT30;54893;49.864;19.084;2023-04-07T10:38:11;1.64;95.23
68109;SHT30;54893;49.864;19.084;2023-04-07T10:43:35;1.56;95.24
68109;SHT30;54893;49.864;19.084;2023-04-07T10:48:36;1.62;95.29
68109;SHT30;54893;49.864;19.084;2023-04-07T10:53:36;1.59;95.29
68109;SHT30;54893;49.864;19.084;2023-04-07T10:58:37;1.60;95.24
68109;SHT30;54893;49.864;19.084;2023-04-07T11:03:52;1.72;95.15
68109;SHT30;54893;49.864;19.084;2023-04-07T11:08:52;1.77;95.14
68109;SHT30;54893;49.864;19.084;2023-04-07T11:13:53;1.80;95.23
68109;SHT30;54893;49.864;19.084;2023-04-07T11:18:56;1.92;95.28
68109;SHT30;54893;49.864;19.084;2023-04-07T11:23:56;2.00;95.24
68109;SHT30;54893;49.864;19.084;2023-04-07T11:28:56;2.00;95.49
68109;SHT30;54893;49.864;19.084;2023-04-07T11:34:00;1.96;95.39
68109;SHT30;54893;49.864;19.084;2023-04-07T11:39:19;2.00;95.58
68109;SHT30;54893;49.864;19.084;2023-04-07T11:44:20;1.96;95.45
68109;SHT30;54893;49.864;19.084;2023-04-07T11:49:21;1.94;95.65
68109;SHT30;54893;49.864;19.084;2023-04-07T11:54:37;1.94;95.60
68109;SHT30;54893;49.864;19.084;2023-04-07T11:59:39;1.96;95.78
68109;SHT30;54893;49.864;19.084;2023-04-07T12:04:54;2.04;95.74
68109;SHT30;54893;49.864;19.084;2023-04-07T12:09:56;2.14;95.52
68109;SHT30;54893;49.864;19.084;2023-04-07T12:14:56;2.21;95.51
68109;SHT30;54893;49.864;19.084;2023-04-07T12:19:56;2.16;95.67
68109;SHT30;54893;49.864;19.084;2023-04-07T12:24:57;2.16;95.87
68109;SHT30;54893;49.864;19.084;2023-04-07T12:29:57;2.27;95.67
68109;SHT30;54893;49.864;19.084;2023-04-07T12:34:57;2.17;95.63
68109;SHT30;54893;49.864;19.084;2023-04-07T12:39:58;2.21;95.86
68109;SHT30;54893;49.864;19.084;2023-04-07T12:44:59;2.20;95.94
68109;SHT30;54893;49.864;19.084;2023-04-07T12:49:59;2.14;95.98
68109;SHT30;54893;49.864;19.084;2023-04-07T12:55:00;2.16;96.11
68109;SHT30;54893;49.864;19.084;2023-04-07T13:00:00;2.27;96.03
68109;SHT30;54893;49.864;19.084;2023-04-07T13:05:01;2.28;95.95
68109;SHT30;54893;49.864;19.084;2023-04-07T13:10:01;2.26;96.21
68109;SHT30;54893;49.864;19.084;2023-04-07T13:15:02;2.27;96.24
68109;SHT30;54893;49.864;19.084;2023-04-07T13:20:04;2.30;96.36
68109;SHT30;54893;49.864;19.084;2023-04-07T13:25:05;2.28;96.23
68109;SHT30;54893;49.864;19.084;2023-04-07T13:30:06;2.26;96.30
68109;SHT30;54893;49.864;19.084;2023-04-07T13:35:07;2.34;96.34
68109;SHT30;54893;49.864;19.084;2023-04-07T13:40:07;2.37;96.24
68109;SHT30;54893;49.864;19.084;2023-04-07T13:45:08;2.33;96.23
68109;SHT30;54893;49.864;19.084;2023-04-07T13:50:09;2.38;96.17
68109;SHT30;54893;49.864;19.084;2023-04-07T13:55:09;2.34;96.24
68109;SHT30;54893;49.864;19.084;2023-04-07T14:00:10;2.28;96.48
68109;SHT30;54893;49.864;19.084;2023-04-07T14:05:10;2.33;96.35
68109;SHT30;54893;49.864;19.084;2023-04-07T14:10:11;2.30;96.49
68109;SHT30;54893;49.864;19.084;2023-04-07T14:15:11;2.40;95.99
68109;SHT30;54893;49.864;19.084;2023-04-07T14:20:11;2.27;96.48
68109;SHT30;54893;49.864;19.084;2023-04-07T14:25:12;2.13;96.73
68109;SHT30;54893;49.864;19.084;2023-04-07T14:30:12;1.94;96.97
68109;SHT30;54893;49.864;19.084;2023-04-07T14:35:12;1.82;97.25
68109;SHT30;54893;49.864;19.084;2023-04-07T14:40:13;1.83;97.32
68109;SHT30;54893;49.864;19.084;2023-04-07T14:45:14;1.90;97.36
68109;SHT30;54893;49.864;19.084;2023-04-07T14:50:14;2.03;97.22
68109;SHT30;54893;49.864;19.084;2023-04-07T14:55:15;2.11;96.96
68109;SHT30;54893;49.864;19.084;2023-04-07T15:00:15;2.20;96.98
68109;SHT30;54893;49.864;19.084;2023-04-07T15:05:16;2.18;97.00
68109;SHT30;54893;49.864;19.084;2023-04-07T15:10:16;2.14;97.26
68109;SHT30;54893;49.864;19.084;2023-04-07T15:15:17;2.14;97.40
68109;SHT30;54893;49.864;19.084;2023-04-07T15:20:17;2.14;97.23
68109;SHT30;54893;49.864;19.084;2023-04-07T15:25:18;2.10;97.27
68109;SHT30;54893;49.864;19.084;2023-04-07T15:30:18;2.14;97.41
68109;SHT30;54893;49.864;19.084;2023-04-07T15:35:19;2.13;97.27
68109;SHT30;54893;49.864;19.084;2023-04-07T15:40:19;2.14;97.40
68109;SHT30;54893;49.864;19.084;2023-04-07T15:45:19;2.16;97.47
68109;SHT30;54893;49.864;19.084;2023-04-07T15:50:20;2.17;97.48
68109;SHT30;54893;49.864;19.084;2023-04-07T15:55:20;2.16;97.36
68109;SHT30;54893;49.864;19.084;2023-04-07T16:00:21;2.07;97.46
68109;SHT30;54893;49.864;19.084;2023-04-07T16:05:21;2.04;97.65
68109;SHT30;54893;49.864;19.084;2023-04-07T16:10:22;2.00;97.67
68109;SHT30;54893;49.864;19.084;2023-04-07T16:15:23;1.97;97.65
68109;SHT30;54893;49.864;19.084;2023-04-07T16:20:23;1.96;97.54
68109;SHT30;54893;49.864;19.084;2023-04-07T16:25:23;1.94;97.59
68109;SHT30;54893;49.864;19.084;2023-04-07T16:30:24;1.94;97.79
68109;SHT30;54893;49.864;19.084;2023-04-07T16:35:24;1.96;97.55
68109;SHT30;54893;49.864;19.084;2023-04-07T16:40:25;1.94;97.76
68109;SHT30;54893;49.864;19.084;2023-04-07T16:45:26;1.93;97.67
68109;SHT30;54893;49.864;19.084;2023-04-07T16:50:26;1.92;97.70
68109;SHT30;54893;49.864;19.084;2023-04-07T16:55:26;1.92;97.75
68109;SHT30;54893;49.864;19.084;2023-04-07T17:00:27;1.92;97.95
68109;SHT30;54893;49.864;19.084;2023-04-07T17:05:27;1.89;98.00
68109;SHT30;54893;49.864;19.084;2023-04-07T17:10:27;1.90;98.09
68109;SHT30;54893;49.864;19.084;2023-04-07T17:15:28;1.90;97.96
68109;SHT30;54893;49.864;19.084;2023-04-07T17:20:28;1.94;97.96
68109;SHT30;54893;49.864;19.084;2023-04-07T17:25:28;1.93;97.93
68109;SHT30;54893;49.864;19.084;2023-04-07T17:30:28;1.97;97.97
68109;SHT30;54893;49.864;19.084;2023-04-07T17:35:29;1.89;98.35
68109;SHT30;54893;49.864;19.084;2023-04-07T17:40:30;1.89;98.56
68109;SHT30;54893;49.864;19.084;2023-04-07T17:45:31;1.87;98.69
68109;SHT30;54893;49.864;19.084;2023-04-07T17:50:32;1.86;98.55
68109;SHT30;54893;49.864;19.084;2023-04-07T17:55:32;1.84;98.47
68109;SHT30;54893;49.864;19.084;2023-04-07T18:00:32;1.87;98.39
68109;SHT30;54893;49.864;19.084;2023-04-07T18:05:33;1.84;98.64
68109;SHT30;54893;49.864;19.084;2023-04-07T18:10:33;1.89;98.56
68109;SHT30;54893;49.864;19.084;2023-04-07T18:15:33;1.89;98.67
68109;SHT30;54893;49.864;19.084;2023-04-07T18:20:34;1.84;98.69
68109;SHT30;54893;49.864;19.084;2023-04-07T18:25:35;1.87;98.80
68109;SHT30;54893;49.864;19.084;2023-04-07T18:30:35;1.90;98.83
68109;SHT30;54893;49.864;19.084;2023-04-07T18:35:36;1.90;98.97
68109;SHT30;54893;49.864;19.084;2023-04-07T18:40:36;1.89;98.95
68109;SHT30;54893;49.864;19.084;2023-04-07T18:45:37;1.90;98.70
68109;SHT30;54893;49.864;19.084;2023-04-07T18:50:37;1.89;99.27
68109;SHT30;54893;49.864;19.084;2023-04-07T18:55:37;1.93;99.14
68109;SHT30;54893;49.864;19.084;2023-04-07T19:00:38;1.92;99.04
68109;SHT30;54893;49.864;19.084;2023-04-07T19:05:38;1.93;98.96
68109;SHT30;54893;49.864;19.084;2023-04-07T19:10:39;1.93;98.90
68109;SHT30;54893;49.864;19.084;2023-04-07T19:15:39;1.93;98.92
68109;SHT30;54893;49.864;19.084;2023-04-07T19:20:43;1.94;98.70
68109;SHT30;54893;49.864;19.084;2023-04-07T19:25:44;1.96;98.64
68109;SHT30;54893;49.864;19.084;2023-04-07T19:30:44;2.00;98.81
68109;SHT30;54893;49.864;19.084;2023-04-07T19:35:45;1.96;98.82
68109;SHT30;54893;49.864;19.084;2023-04-07T19:40:45;1.99;98.80
68109;SHT30;54893;49.864;19.084;2023-04-07T19:45:46;1.97;98.92
68109;SHT30;54893;49.864;19.084;2023-04-07T19:50:49;2.00;98.92
68109;SHT30;54893;49.864;19.084;2023-04-07T19:55:50;1.96;98.91
68109;SHT30;54893;49.864;19.084;2023-04-07T20:00:51;1.99;98.83
68109;SHT30;54893;49.864;19.084;2023-04-07T20:05:51;1.99;99.00
68109;SHT30;54893;49.864;19.084;2023-04-07T20:10:52;1.99;99.03
68109;SHT30;54893;49.864;19.084;2023-04-07T20:15:52;1.97;99.20
68109;SHT30;54893;49.864;19.084;2023-04-07T20:21:00;1.99;99.16
68109;SHT30;54893;49.864;19.084;2023-04-07T20:26:00;1.97;99.25
68109;SHT30;54893;49.864;19.084;2023-04-07T20:31:01;2.00;99.38
68109;SHT30;54893;49.864;19.084;2023-04-07T20:36:01;2.03;99.53
68109;SHT30;54893;49.864;19.084;2023-04-07T20:41:02;2.03;99.99
68109;SHT30;54893;49.864;19.084;2023-04-07T20:46:06;2.02;99.99
68109;SHT30;54893;49.864;19.084;2023-04-07T20:51:10;2.02;99.99
68109;SHT30;54893;49.864;19.084;2023-04-07T20:56:11;2.04;99.99
68109;SHT30;54893;49.864;19.084;2023-04-07T21:01:11;2.02;99.99
68109;SHT30;54893;49.864;19.084;2023-04-07T21:06:12;2.06;99.99
68109;SHT30;54893;49.864;19.084;2023-04-07T21:11:12;2.10;99.99
68109;SHT30;54893;49.864;19.084;2023-04-07T21:16:13;2.13;99.99
68109;SHT30;54893;49.864;19.084;2023-04-07T21:21:14;2.13;99.99
68109;SHT30;54893;49.864;19.084;2023-04-07T21:26:15;2.14;99.99
68109;SHT30;54893;49.864;19.084;2023-04-07T21:31:22;2.14;99.99
68109;SHT30;54893;49.864;19.084;2023-04-07T21:36:23;2.16;99.99
68109;SHT30;54893;49.864;19.084;2023-04-07T21:41:23;2.13;99.99
68109;SHT30;54893;49.864;19.084;2023-04-07T21:46:23;2.16;99.99
68109;SHT30;54893;49.864;19.084;2023-04-07T21:51:24;2.13;99.99
68109;SHT30;54893;49.864;19.084;2023-04-07T21:56:24;2.13;99.99
68109;SHT30;54893;49.864;19.084;2023-04-07T22:01:25;2.11;99.99
68109;SHT30;54893;49.864;19.084;2023-04-07T22:06:26;2.07;99.99
68109;SHT30;54893;49.864;19.084;2023-04-07T22:11:26;2.06;99.99
68109;SHT30;54893;49.864;19.084;2023-04-07T22:16:27;2.06;99.99
68109;SHT30;54893;49.864;19.084;2023-04-07T22:21:27;2.06;99.99
68109;SHT30;54893;49.864;19.084;2023-04-07T22:26:28;2.04;99.99
68109;SHT30;54893;49.864;19.084;2023-04-07T22:31:28;2.06;99.99
68109;SHT30;54893;49.864;19.084;2023-04-07T22:36:28;2.06;99.99
68109;SHT30;54893;49.864;19.084;2023-04-07T22:41:29;2.04;99.99
68109;SHT30;54893;49.864;19.084;2023-04-07T22:46:29;2.06;99.93
68109;SHT30;54893;49.864;19.084;2023-04-07T22:51:29;2.06;99.96
68109;SHT30;54893;49.864;19.084;2023-04-07T22:56:30;2.04;99.85
68109;SHT30;54893;49.864;19.084;2023-04-07T23:01:30;2.02;99.71
68109;SHT30;54893;49.864;19.084;2023-04-07T23:06:31;2.04;99.76
68109;SHT30;54893;49.864;19.084;2023-04-07T23:11:32;2.03;99.87
68109;SHT30;54893;49.864;19.084;2023-04-07T23:16:33;1.99;99.98
68109;SHT30;54893;49.864;19.084;2023-04-07T23:21:33;1.92;99.99
68109;SHT30;54893;49.864;19.084;2023-04-07T23:26:34;1.92;99.99
68109;SHT30;54893;49.864;19.084;2023-04-07T23:31:34;1.86;99.99
68109;SHT30;54893;49.864;19.084;2023-04-07T23:36:34;1.84;99.99
68109;SHT30;54893;49.864;19.084;2023-04-07T23:41:35;1.83;99.99
68109;SHT30;54893;49.864;19.084;2023-04-07T23:46:36;1.80;99.99
68109;SHT30;54893;49.864;19.084;2023-04-07T23:51:36;1.82;99.99
68109;SHT30;54893;49.864;19.084;2023-04-07T23:56:36;1.77;99.99
